Time;durP1;ratioP1;P1;durP2;ratioP2;P2;SDS_P1;SDS_P2;PMS_P1;PMS_P2;Temp;Humidity;BMP_temperature;BMP_pressure;BME280_temperature;BME280_humidity;BME280_pressure;Samples;Min_cycle;Max_cycle;Signal;HPM_P1;HPM_P2
2022/05/23 00:01:00;;;;;;;;;;;10.90;99.90;;;;;;2621385;46;19934;31
2022/05/23 00:03:36;;;;;;;;;;;10.90;99.90;;;;;;2701092;39;21479;31
2022/05/23 00:06:13;;;;;;;;;;;10.80;99.90;;;;;;2719779;39;20324;31
2022/05/23 00:08:47;;;;;;;;;;;10.80;99.90;;;;;;2602914;54;20046;31
2022/05/23 00:11:21;;;;;;;;;;;10.80;99.90;;;;;;2602566;54;19935;31
2022/05/23 00:13:55;;;;;;;;;;;10.70;99.90;;;;;;2701078;39;21506;31
2022/05/23 00:16:30;;;;;;;;;;;10.70;99.90;;;;;;2621329;47;19935;31
2022/05/23 00:19:04;;;;;;;;;;;10.60;99.90;;;;;;2602551;54;19977;31
2022/05/23 00:21:41;;;;;;;;;;;10.60;99.90;;;;;;2621162;47;20792;31
2022/05/23 00:24:15;;;;;;;;;;;10.60;99.90;;;;;;2603297;54;19934;31
2022/05/23 00:26:49;;;;;;;;;;;10.50;99.90;;;;;;2622034;46;20790;31
2022/05/23 00:29:23;;;;;;;;;;;10.40;99.90;;;;;;2622038;46;19941;31
2022/05/23 00:37:41;;;;;;;;;;;10.30;99.90;;;;;;2621776;46;19935;31
2022/05/23 00:40:24;;;;;;;;;;;10.30;99.90;;;;;;2702043;39;20432;31
2022/05/23 00:45:46;;;;;;;;;;;10.10;99.90;;;;;;2621866;46;20768;31
2022/05/23 00:48:21;;;;;;;;;;;10.10;99.90;;;;;;2702145;39;21403;31
2022/05/23 00:50:55;;;;;;;;;;;10.00;99.90;;;;;;2613287;46;20749;31
2022/05/23 00:53:33;;;;;;;;;;;10.00;99.90;;;;;;2603447;54;19938;31
2022/05/23 00:56:08;;;;;;;;;;;10.10;99.90;;;;;;2621179;46;19931;31
2022/05/23 00:58:46;;;;;;;;;;;10.00;99.90;;;;;;2603373;54;20786;31
2022/05/23 01:01:21;;;;;;;;;;;10.00;99.90;;;;;;2611226;46;20031;31
2022/05/23 01:03:54;;;;;;;;;;;9.90;99.90;;;;;;2603237;54;19935;31
2022/05/23 01:06:28;;;;;;;;;;;9.90;99.90;;;;;;2603475;54;19997;31
2022/05/23 01:09:05;;;;;;;;;;;9.80;99.90;;;;;;2603358;54;19935;31
2022/05/23 01:11:40;;;;;;;;;;;9.80;99.90;;;;;;2621876;46;19942;31
2022/05/23 01:14:14;;;;;;;;;;;9.80;99.90;;;;;;2621395;46;20792;31
2022/05/23 01:16:48;;;;;;;;;;;9.80;99.90;;;;;;2603348;54;19972;31
2022/05/23 01:19:23;;;;;;;;;;;9.80;99.90;;;;;;2602942;54;19935;31
2022/05/23 01:21:58;;;;;;;;;;;9.80;99.90;;;;;;2621603;46;19935;31
2022/05/23 01:24:43;;;;;;;;;;;9.80;99.90;;;;;;2621814;46;19935;31
2022/05/23 01:27:21;;;;;;;;;;;9.70;99.90;;;;;;2621710;46;19993;31
2022/05/23 01:29:54;;;;;;;;;;;9.60;99.90;;;;;;2602904;54;19935;31
2022/05/23 01:32:29;;;;;;;;;;;9.60;99.90;;;;;;2603091;54;20660;31
2022/05/23 01:35:04;;;;;;;;;;;9.60;99.90;;;;;;2602952;54;20770;31
2022/05/23 01:37:38;;;;;;;;;;;9.50;99.90;;;;;;2621770;46;19935;31
2022/05/23 01:40:26;;;;;;;;;;;9.50;99.90;;;;;;2603340;54;21058;31
2022/05/23 01:43:11;;;;;;;;;;;9.40;99.90;;;;;;2621786;46;20752;31
2022/05/23 01:45:47;;;;;;;;;;;9.40;99.90;;;;;;2602850;54;19993;31
2022/05/23 01:48:38;;;;;;;;;;;9.40;99.90;;;;;;2603029;54;19941;31
2022/05/23 01:51:13;;;;;;;;;;;9.40;99.90;;;;;;2621304;46;20780;31
2022/05/23 01:53:47;;;;;;;;;;;9.40;99.90;;;;;;2603057;54;19935;31
2022/05/23 01:56:23;;;;;;;;;;;9.30;99.90;;;;;;2621694;46;20021;31
2022/05/23 02:01:56;;;;;;;;;;;9.20;99.90;;;;;;2603065;54;20799;31
2022/05/23 02:04:41;;;;;;;;;;;9.10;99.90;;;;;;2621520;46;19943;31
2022/05/23 02:07:20;;;;;;;;;;;9.20;99.90;;;;;;2602359;54;19941;31
2022/05/23 02:09:56;;;;;;;;;;;9.10;99.90;;;;;;2621624;46;19935;31
2022/05/23 02:12:33;;;;;;;;;;;9.10;99.90;;;;;;2603027;54;19934;31
2022/05/23 02:15:16;;;;;;;;;;;9.10;99.90;;;;;;2603147;54;19935;31
2022/05/23 02:18:13;;;;;;;;;;;9.10;99.90;;;;;;2602951;54;19987;31
2022/05/23 02:20:49;;;;;;;;;;;9.10;99.90;;;;;;2621765;46;19935;31
2022/05/23 02:23:23;;;;;;;;;;;9.10;99.90;;;;;;2603150;54;20025;31
2022/05/23 02:25:57;;;;;;;;;;;9.10;99.90;;;;;;2621651;46;19974;31
2022/05/23 02:28:51;;;;;;;;;;;9.10;99.90;;;;;;2621475;46;20744;31
2022/05/23 02:31:35;;;;;;;;;;;9.10;99.90;;;;;;2621414;46;19941;31
2022/05/23 02:34:13;;;;;;;;;;;9.00;99.90;;;;;;2602930;54;19935;31
2022/05/23 02:36:54;;;;;;;;;;;9.00;99.90;;;;;;2602881;54;19935;31
2022/05/23 02:39:42;;;;;;;;;;;9.00;99.90;;;;;;2621524;46;19934;31
2022/05/23 02:42:22;;;;;;;;;;;9.00;99.90;;;;;;2602826;54;19973;31
2022/05/23 02:44:56;;;;;;;;;;;8.90;99.90;;;;;;2602614;54;20013;31
2022/05/23 02:47:35;;;;;;;;;;;8.90;99.90;;;;;;2701655;39;22125;31
2022/05/23 02:50:12;;;;;;;;;;;8.90;99.90;;;;;;2603021;54;19935;31
2022/05/23 02:52:49;;;;;;;;;;;8.80;99.90;;;;;;2602920;54;20830;31
2022/05/23 02:55:27;;;;;;;;;;;8.80;99.90;;;;;;2621398;46;19942;31
2022/05/23 02:58:04;;;;;;;;;;;8.80;99.90;;;;;;2621427;46;19934;31
2022/05/23 03:00:41;;;;;;;;;;;8.80;99.90;;;;;;2602856;54;19946;31
2022/05/23 03:03:17;;;;;;;;;;;8.70;99.90;;;;;;2621419;46;20701;31
2022/05/23 03:06:03;;;;;;;;;;;8.60;99.90;;;;;;2602894;54;19935;31
2022/05/23 03:08:39;;;;;;;;;;;8.60;99.90;;;;;;2602902;54;19941;31
2022/05/23 03:11:14;;;;;;;;;;;8.50;99.90;;;;;;2602050;54;20762;31
2022/05/23 03:13:49;;;;;;;;;;;8.50;99.90;;;;;;2620540;46;19977;31
2022/05/23 03:16:24;;;;;;;;;;;8.50;99.90;;;;;;2602291;54;20804;31
2022/05/23 03:19:01;;;;;;;;;;;8.40;99.90;;;;;;2621302;46;21085;31
2022/05/23 03:27:46;;;;;;;;;;;8.50;99.90;;;;;;2620867;46;20785;31
2022/05/23 03:30:27;;;;;;;;;;;8.70;99.90;;;;;;2602728;54;19934;31
2022/05/23 03:33:02;;;;;;;;;;;9.70;99.90;;;;;;2602650;54;20773;31
2022/05/23 03:35:40;;;;;;;;;;;8.80;99.90;;;;;;2602131;54;20813;31
2022/05/23 03:38:15;;;;;;;;;;;8.90;99.90;;;;;;2621206;46;19934;31
2022/05/23 03:40:50;;;;;;;;;;;9.10;99.90;;;;;;2603094;54;19953;31
2022/05/23 03:43:27;;;;;;;;;;;9.20;99.90;;;;;;2602965;54;20029;31
2022/05/23 03:46:06;;;;;;;;;;;9.40;99.90;;;;;;2612781;46;20020;31
2022/05/23 03:48:40;;;;;;;;;;;9.50;99.90;;;;;;2601796;54;19969;31
2022/05/23 03:51:21;;;;;;;;;;;9.60;99.90;;;;;;2602064;54;20013;31
2022/05/23 03:53:58;;;;;;;;;;;9.70;99.90;;;;;;2601978;54;20720;31
2022/05/23 03:56:33;;;;;;;;;;;9.80;99.90;;;;;;2601811;54;20784;31
2022/05/23 03:59:10;;;;;;;;;;;10.00;99.90;;;;;;2601906;54;19942;31
2022/05/23 04:01:56;;;;;;;;;;;10.10;99.90;;;;;;2601933;54;19993;31
2022/05/23 04:04:38;;;;;;;;;;;10.30;99.90;;;;;;2602537;54;19938;31
2022/05/23 04:07:43;;;;;;;;;;;10.40;99.90;;;;;;2602490;54;19935;31
2022/05/23 04:10:29;;;;;;;;;;;10.70;99.90;;;;;;2602731;54;19957;31
2022/05/23 04:13:04;;;;;;;;;;;10.80;99.90;;;;;;2602705;54;19982;31
2022/05/23 04:15:40;;;;;;;;;;;11.00;99.90;;;;;;2621309;47;20672;31
2022/05/23 04:18:16;;;;;;;;;;;11.30;99.90;;;;;;2602535;54;19987;31
2022/05/23 04:20:49;;;;;;;;;;;11.50;99.90;;;;;;2602646;54;20647;31
2022/05/23 04:23:34;;;;;;;;;;;11.70;99.90;;;;;;2602577;54;20751;31
2022/05/23 04:26:10;;;;;;;;;;;11.90;99.90;;;;;;2602495;54;20806;31
2022/05/23 04:28:45;;;;;;;;;;;12.00;99.90;;;;;;2602498;54;20856;31
2022/05/23 04:31:20;;;;;;;;;;;12.30;99.90;;;;;;2602555;54;19935;31
2022/05/23 04:37:10;;;;;;;;;;;12.70;99.90;;;;;;2602753;54;19985;31
2022/05/23 04:39:53;;;;;;;;;;;12.90;99.90;;;;;;2602800;54;20672;31
2022/05/23 04:42:29;;;;;;;;;;;13.10;99.90;;;;;;2602529;54;20693;31
2022/05/23 04:45:05;;;;;;;;;;;13.30;99.90;;;;;;2602609;54;19941;31
2022/05/23 04:50:37;;;;;;;;;;;13.70;99.90;;;;;;2719865;39;20426;31
2022/05/23 04:53:14;;;;;;;;;;;14.00;99.90;;;;;;2601920;54;19946;31
2022/05/23 04:56:13;;;;;;;;;;;14.20;99.90;;;;;;2602716;54;19977;31
2022/05/23 04:58:51;;;;;;;;;;;14.40;99.90;;;;;;2612264;47;21343;31
2022/05/23 05:01:24;;;;;;;;;;;14.60;99.90;;;;;;2615713;47;19942;31
2022/05/23 05:04:00;;;;;;;;;;;14.70;99.90;;;;;;2602771;54;20756;31
2022/05/23 05:06:43;;;;;;;;;;;15.00;99.90;;;;;;2602739;54;20013;31
2022/05/23 05:09:18;;;;;;;;;;;15.10;99.90;;;;;;2602230;54;19949;31
2022/05/23 05:12:00;;;;;;;;;;;15.40;99.90;;;;;;2603615;54;19935;31
2022/05/23 05:14:45;;;;;;;;;;;15.60;99.90;;;;;;2622121;46;20832;31
2022/05/23 05:17:18;;;;;;;;;;;15.80;99.90;;;;;;2605470;46;19942;31
2022/05/23 05:19:56;;;;;;;;;;;16.00;99.90;;;;;;2603550;54;21376;31
2022/05/23 05:22:50;;;;;;;;;;;16.20;99.90;;;;;;2603514;54;19935;31
2022/05/23 05:25:45;;;;;;;;;;;16.40;99.90;;;;;;2603498;54;19934;31
2022/05/23 05:28:27;;;;;;;;;;;16.60;99.90;;;;;;2622060;46;19942;31
2022/05/23 05:31:07;;;;;;;;;;;16.60;99.90;;;;;;2720599;39;21309;31
2022/05/23 05:33:42;;;;;;;;;;;16.60;99.90;;;;;;2622150;46;20025;31
2022/05/23 05:36:18;;;;;;;;;;;16.50;99.90;;;;;;2603726;54;20776;31
2022/05/23 05:38:54;;;;;;;;;;;16.60;99.90;;;;;;2603453;54;19947;31
2022/05/23 05:41:28;;;;;;;;;;;16.50;99.90;;;;;;2622212;46;19934;31
2022/05/23 05:44:03;;;;;;;;;;;16.70;99.90;;;;;;2603438;54;19934;31
2022/05/23 05:46:45;;;;;;;;;;;16.80;99.90;;;;;;2603489;54;19934;31
2022/05/23 05:49:27;;;;;;;;;;;16.90;99.90;;;;;;2603602;54;19934;31
2022/05/23 05:52:10;;;;;;;;;;;17.00;99.90;;;;;;2603335;54;20733;31
2022/05/23 05:55:04;;;;;;;;;;;17.10;99.90;;;;;;2603501;54;19938;31
2022/05/23 05:57:38;;;;;;;;;;;17.00;99.90;;;;;;2621625;46;20668;31
2022/05/23 06:00:17;;;;;;;;;;;17.10;99.90;;;;;;2701101;39;21324;31
2022/05/23 06:02:55;;;;;;;;;;;17.20;99.90;;;;;;2602557;54;20746;31
2022/05/23 06:11:23;;;;;;;;;;;17.30;99.90;;;;;;2603348;54;20677;31
2022/05/23 06:11:28;;;;;;;;;;;17.60;99.90;;;;;;2702086;39;20408;31
2022/05/23 06:14:12;;;;;;;;;;;17.60;99.90;;;;;;2603429;54;20731;31
2022/05/23 06:16:50;;;;;;;;;;;17.60;99.90;;;;;;2612958;46;19938;31
2022/05/23 06:19:31;;;;;;;;;;;17.80;99.90;;;;;;2602478;54;20810;31
2022/05/23 06:22:13;;;;;;;;;;;18.00;99.90;;;;;;2603766;46;20580;31
2022/05/23 06:25:00;;;;;;;;;;;18.20;99.90;;;;;;2603121;54;19941;31
2022/05/23 06:27:37;;;;;;;;;;;18.30;99.90;;;;;;2603350;54;20741;31
2022/05/23 06:30:15;;;;;;;;;;;18.40;99.90;;;;;;2613756;46;20021;31
2022/05/23 06:33:21;;;;;;;;;;;18.30;99.90;;;;;;2603288;54;19942;31
2022/05/23 06:36:11;;;;;;;;;;;18.30;99.90;;;;;;2603448;54;20735;31
2022/05/23 06:38:47;;;;;;;;;;;18.30;99.90;;;;;;2603514;54;19935;31
2022/05/23 06:41:42;;;;;;;;;;;18.20;99.90;;;;;;2603303;54;19981;31
2022/05/23 06:44:43;;;;;;;;;;;18.30;99.90;;;;;;2603294;54;20031;31
2022/05/23 06:47:41;;;;;;;;;;;18.40;99.90;;;;;;2603234;54;19938;31
2022/05/23 06:50:39;;;;;;;;;;;18.50;99.90;;;;;;2603476;54;21353;31
2022/05/23 06:53:23;;;;;;;;;;;18.70;99.90;;;;;;2621704;46;20392;31
2022/05/23 06:56:17;;;;;;;;;;;18.80;99.90;;;;;;2603427;54;20744;31
2022/05/23 06:58:57;;;;;;;;;;;18.90;99.90;;;;;;2621889;46;20811;31
2022/05/23 07:01:39;;;;;;;;;;;19.10;99.90;;;;;;2603245;54;19938;31
2022/05/23 07:04:20;;;;;;;;;;;19.20;99.90;;;;;;2603292;54;20663;31
2022/05/23 07:12:49;;;;;;;;;;;19.30;99.90;;;;;;2603179;54;20657;31
2022/05/23 07:15:35;;;;;;;;;;;19.50;99.90;;;;;;2603168;54;20655;31
2022/05/23 07:18:15;;;;;;;;;;;19.60;99.90;;;;;;2603546;54;20731;31
2022/05/23 07:20:52;;;;;;;;;;;19.80;99.90;;;;;;2701655;39;21271;31
2022/05/23 07:23:35;;;;;;;;;;;19.90;99.90;;;;;;2603017;54;19935;31
2022/05/23 07:26:23;;;;;;;;;;;20.10;99.90;;;;;;2602991;54;19938;31
2022/05/23 07:29:02;;;;;;;;;;;20.30;99.90;;;;;;2602335;54;19949;31
2022/05/23 07:31:37;;;;;;;;;;;20.40;99.90;;;;;;2602748;54;19939;31
2022/05/23 07:34:12;;;;;;;;;;;20.50;99.90;;;;;;2603117;54;20712;31
2022/05/23 07:36:50;;;;;;;;;;;20.50;99.90;;;;;;2621832;46;20731;31
2022/05/23 07:39:26;;;;;;;;;;;20.60;99.90;;;;;;2602997;54;19934;31
2022/05/23 07:42:09;;;;;;;;;;;20.70;99.90;;;;;;2621646;46;19938;31
2022/05/23 07:44:43;;;;;;;;;;;20.70;99.90;;;;;;2621141;46;20758;31
2022/05/23 07:47:24;;;;;;;;;;;20.70;99.90;;;;;;2603192;54;20654;31
2022/05/23 07:50:19;;;;;;;;;;;20.80;99.90;;;;;;2602933;54;20050;31
2022/05/23 08:01:24;;;;;;;;;;;21.70;99.40;;;;;;2602949;54;20744;31
2022/05/23 08:04:08;;;;;;;;;;;21.50;98.80;;;;;;2602049;54;19942;31
2022/05/23 08:06:53;;;;;;;;;;;21.40;99.70;;;;;;2700522;39;21602;31
2022/05/23 08:09:31;;;;;;;;;;;21.50;99.40;;;;;;2602342;54;20773;31
2022/05/23 08:12:12;;;;;;;;;;;21.70;99.60;;;;;;2621578;47;20761;31
2022/05/23 08:14:50;;;;;;;;;;;21.70;99.60;;;;;;2602953;54;19960;31
2022/05/23 08:17:33;;;;;;;;;;;21.90;98.20;;;;;;2602994;54;19946;31
2022/05/23 08:20:24;;;;;;;;;;;22.20;98.70;;;;;;2603025;54;19961;31
2022/05/23 08:22:59;;;;;;;;;;;22.40;97.70;;;;;;2602771;54;19934;31
2022/05/23 08:25:40;;;;;;;;;;;22.40;96.90;;;;;;2602830;54;20670;31
2022/05/23 08:28:15;;;;;;;;;;;22.70;97.30;;;;;;2619270;47;19961;31
2022/05/23 08:30:53;;;;;;;;;;;22.70;96.90;;;;;;2602721;54;20741;31
2022/05/23 08:33:36;;;;;;;;;;;22.90;96.60;;;;;;2602799;54;19934;31
2022/05/23 08:36:33;;;;;;;;;;;23.10;95.90;;;;;;2621304;47;19957;31
2022/05/23 08:39:12;;;;;;;;;;;23.20;95.20;;;;;;2602955;54;19943;31
2022/05/23 08:42:06;;;;;;;;;;;23.20;95.60;;;;;;2719730;39;20289;31
2022/05/23 08:44:58;;;;;;;;;;;23.20;94.90;;;;;;2702216;39;22141;31
2022/05/23 08:47:38;;;;;;;;;;;23.30;94.20;;;;;;2622185;46;20657;31
2022/05/23 08:50:18;;;;;;;;;;;23.30;94.30;;;;;;2603695;54;19935;31
2022/05/23 08:52:58;;;;;;;;;;;23.50;94.80;;;;;;2609161;46;20663;31
2022/05/23 08:55:41;;;;;;;;;;;23.30;93.60;;;;;;2603445;54;20752;31
2022/05/23 08:58:54;;;;;;;;;;;23.20;92.60;;;;;;2603420;54;19935;31
2022/05/23 09:01:30;;;;;;;;;;;23.30;94.30;;;;;;2603602;54;19956;31
2022/05/23 09:04:10;;;;;;;;;;;23.50;93.50;;;;;;2603566;54;20800;31
2022/05/23 09:06:45;;;;;;;;;;;23.40;93.00;;;;;;2603619;54;19941;31
2022/05/23 09:09:20;;;;;;;;;;;23.50;92.70;;;;;;2603511;54;19935;31
2022/05/23 09:11:56;;;;;;;;;;;23.70;92.30;;;;;;2603668;54;20796;31
2022/05/23 09:14:31;;;;;;;;;;;23.80;92.00;;;;;;2603502;54;19961;31
2022/05/23 09:17:06;;;;;;;;;;;23.70;92.10;;;;;;2617541;46;19989;31
2022/05/23 09:19:45;;;;;;;;;;;23.70;91.90;;;;;;2603362;54;19934;31
2022/05/23 09:22:23;;;;;;;;;;;23.80;91.40;;;;;;2621769;46;19934;31
2022/05/23 09:25:03;;;;;;;;;;;23.90;91.80;;;;;;2621812;46;20782;31
2022/05/23 09:27:39;;;;;;;;;;;24.00;91.10;;;;;;2603249;54;19935;31
2022/05/23 09:30:16;;;;;;;;;;;24.10;90.90;;;;;;2603192;54;20006;31
2022/05/23 09:32:52;;;;;;;;;;;24.10;90.40;;;;;;2602629;54;20740;31
2022/05/23 09:35:31;;;;;;;;;;;24.00;90.70;;;;;;2702021;39;21641;31
2022/05/23 09:38:07;;;;;;;;;;;24.00;90.10;;;;;;2603412;54;20755;31
2022/05/23 09:40:57;;;;;;;;;;;23.90;90.60;;;;;;2603580;54;20726;31
2022/05/23 09:49:08;;;;;;;;;;;23.80;89.80;;;;;;2603630;54;20750;31
2022/05/23 09:51:58;;;;;;;;;;;23.80;90.20;;;;;;2702100;39;21484;31
2022/05/23 09:54:46;;;;;;;;;;;23.80;90.20;;;;;;2701559;39;20402;31
2022/05/23 09:57:21;;;;;;;;;;;24.00;89.90;;;;;;2621863;46;19950;31
2022/05/23 09:59:57;;;;;;;;;;;24.00;89.10;;;;;;2621519;46;20013;31
2022/05/23 10:02:36;;;;;;;;;;;23.80;89.20;;;;;;2602451;54;20805;31
2022/05/23 10:05:25;;;;;;;;;;;24.00;88.80;;;;;;2622007;46;21545;31
2022/05/23 10:08:02;;;;;;;;;;;23.80;88.40;;;;;;2603544;54;19934;31
2022/05/23 10:10:40;;;;;;;;;;;23.80;90.00;;;;;;2701908;39;22274;31
2022/05/23 10:13:16;;;;;;;;;;;23.60;88.10;;;;;;2612124;46;21214;31
2022/05/23 10:15:54;;;;;;;;;;;23.50;88.40;;;;;;2719849;39;20436;31
2022/05/23 10:18:32;;;;;;;;;;;23.60;88.20;;;;;;2621819;46;20799;31
2022/05/23 10:21:21;;;;;;;;;;;23.50;87.70;;;;;;2621513;46;20778;31
2022/05/23 10:23:54;;;;;;;;;;;23.40;89.30;;;;;;2702029;39;22257;31
2022/05/23 10:26:33;;;;;;;;;;;23.40;88.50;;;;;;2622004;46;20768;31
2022/05/23 10:29:09;;;;;;;;;;;23.50;88.20;;;;;;2603199;54;19934;31
2022/05/23 10:31:45;;;;;;;;;;;23.30;87.00;;;;;;2603581;54;19934;31
2022/05/23 10:34:26;;;;;;;;;;;23.30;88.50;;;;;;2603216;54;20381;31
2022/05/23 10:37:01;;;;;;;;;;;23.30;87.90;;;;;;2603247;54;20014;31
2022/05/23 10:42:30;;;;;;;;;;;23.10;84.60;;;;;;2621973;46;19935;31
2022/05/23 10:45:12;;;;;;;;;;;23.00;87.00;;;;;;2621856;46;19934;31
2022/05/23 10:47:51;;;;;;;;;;;23.10;88.60;;;;;;2608058;46;19943;31
2022/05/23 10:50:29;;;;;;;;;;;23.20;89.20;;;;;;2603277;54;20648;31
2022/05/23 10:53:07;;;;;;;;;;;23.10;86.50;;;;;;2602693;54;19950;31
2022/05/23 10:55:43;;;;;;;;;;;23.00;85.50;;;;;;2702027;39;20317;31
2022/05/23 10:58:21;;;;;;;;;;;22.70;85.50;;;;;;2621806;46;20728;31
2022/05/23 11:00:58;;;;;;;;;;;22.50;85.40;;;;;;2603051;54;19943;31
2022/05/23 11:03:39;;;;;;;;;;;22.50;85.50;;;;;;2701709;39;21269;31
2022/05/23 11:06:17;;;;;;;;;;;22.40;84.00;;;;;;2602771;54;20008;31
2022/05/23 11:08:58;;;;;;;;;;;22.40;83.90;;;;;;2720351;39;21456;31
2022/05/23 11:11:36;;;;;;;;;;;22.20;84.60;;;;;;2609868;46;19934;31
2022/05/23 11:14:12;;;;;;;;;;;22.20;84.80;;;;;;2603035;54;19935;31
2022/05/23 11:16:48;;;;;;;;;;;22.20;85.20;;;;;;2701721;39;21551;31
2022/05/23 11:19:28;;;;;;;;;;;22.20;88.40;;;;;;2603214;54;20507;31
2022/05/23 11:22:05;;;;;;;;;;;22.40;85.80;;;;;;2603254;54;19943;31
2022/05/23 11:24:41;;;;;;;;;;;22.40;86.80;;;;;;2603167;54;20635;31
2022/05/23 11:35:48;;;;;;;;;;;22.50;86.20;;;;;;2621565;46;19934;31
2022/05/23 11:38:20;;;;;;;;;;;22.50;85.80;;;;;;2603093;54;22228;31
2022/05/23 11:41:10;;;;;;;;;;;22.50;87.20;;;;;;2621458;46;20930;31
2022/05/23 11:43:45;;;;;;;;;;;22.50;87.90;;;;;;2602877;54;19935;31
2022/05/23 11:46:19;;;;;;;;;;;22.50;86.90;;;;;;2621842;46;20663;31
2022/05/23 11:48:55;;;;;;;;;;;22.40;85.50;;;;;;2621390;46;20667;31
2022/05/23 11:51:48;;;;;;;;;;;22.40;86.90;;;;;;2602913;54;19934;31
2022/05/23 11:54:42;;;;;;;;;;;22.30;85.90;;;;;;2603100;54;19934;31
2022/05/23 11:57:20;;;;;;;;;;;22.30;85.80;;;;;;2602903;54;19935;31
2022/05/23 12:00:02;;;;;;;;;;;22.40;88.10;;;;;;2621564;46;19934;31
2022/05/23 12:03:04;;;;;;;;;;;22.40;84.40;;;;;;2603174;54;19961;31
2022/05/23 12:05:38;;;;;;;;;;;22.40;85.40;;;;;;2621116;47;20694;31
2022/05/23 12:08:27;;;;;;;;;;;22.30;86.20;;;;;;2603194;54;19941;31
2022/05/23 12:11:05;;;;;;;;;;;22.40;85.20;;;;;;2621240;47;19941;31
2022/05/23 12:13:46;;;;;;;;;;;22.60;84.70;;;;;;2621475;47;19934;31
2022/05/23 12:16:48;;;;;;;;;;;22.70;84.40;;;;;;2719854;39;20381;31
2022/05/23 12:19:36;;;;;;;;;;;22.60;84.40;;;;;;2603715;54;20861;31
2022/05/23 12:22:26;;;;;;;;;;;22.50;85.60;;;;;;2603578;54;19989;31
2022/05/23 12:25:01;;;;;;;;;;;22.30;85.50;;;;;;2622347;46;20777;31
2022/05/23 12:27:44;;;;;;;;;;;22.20;83.70;;;;;;2603770;54;20742;31
2022/05/23 12:30:35;;;;;;;;;;;22.10;84.80;;;;;;2602699;54;19950;31
2022/05/23 12:33:10;;;;;;;;;;;22.10;85.20;;;;;;2690889;39;20357;31
2022/05/23 12:35:51;;;;;;;;;;;22.00;85.60;;;;;;2603676;54;20659;31
2022/05/23 12:38:28;;;;;;;;;;;22.00;84.70;;;;;;2603596;54;19935;31
2022/05/23 12:41:03;;;;;;;;;;;22.00;84.90;;;;;;2603449;54;20664;31
2022/05/23 12:43:41;;;;;;;;;;;22.00;85.50;;;;;;2602837;54;20777;31
2022/05/23 12:46:22;;;;;;;;;;;22.00;84.60;;;;;;2603038;54;20960;31
2022/05/23 12:49:11;;;;;;;;;;;22.00;85.40;;;;;;2603706;54;20746;31
2022/05/23 12:51:46;;;;;;;;;;;22.00;83.70;;;;;;2603392;54;19935;31
2022/05/23 12:54:28;;;;;;;;;;;22.00;83.80;;;;;;2603643;54;19942;31
2022/05/23 12:57:13;;;;;;;;;;;21.90;84.20;;;;;;2603940;54;19938;31
2022/05/23 12:59:52;;;;;;;;;;;21.90;83.50;;;;;;2621722;46;19989;31
2022/05/23 13:02:34;;;;;;;;;;;21.80;83.90;;;;;;2603823;54;20768;31
2022/05/23 13:05:10;;;;;;;;;;;21.70;84.60;;;;;;2603554;54;20805;31
2022/05/23 13:07:47;;;;;;;;;;;21.70;83.70;;;;;;2602779;54;19942;31
2022/05/23 13:10:24;;;;;;;;;;;21.80;85.10;;;;;;2603458;54;19934;31
2022/05/23 13:13:01;;;;;;;;;;;21.80;84.00;;;;;;2603647;54;20639;31
2022/05/23 13:15:39;;;;;;;;;;;21.90;83.70;;;;;;2621954;46;19934;31
2022/05/23 13:24:04;;;;;;;;;;;21.90;85.60;;;;;;2622110;46;20786;31
2022/05/23 13:26:39;;;;;;;;;;;22.00;85.60;;;;;;2622057;46;19942;31
2022/05/23 13:29:15;;;;;;;;;;;22.00;83.80;;;;;;2621933;46;19991;31
2022/05/23 13:31:50;;;;;;;;;;;21.90;81.10;;;;;;2603091;54;19935;31
2022/05/23 13:34:46;;;;;;;;;;;21.90;81.30;;;;;;2603587;54;19935;31
2022/05/23 13:37:34;;;;;;;;;;;21.80;81.60;;;;;;2603383;54;19977;31
2022/05/23 13:40:11;;;;;;;;;;;21.80;82.30;;;;;;2612399;46;19957;31
2022/05/23 13:42:46;;;;;;;;;;;21.90;82.00;;;;;;2618016;46;19997;31
2022/05/23 13:45:26;;;;;;;;;;;21.90;82.60;;;;;;2621909;46;19946;31
2022/05/23 13:48:03;;;;;;;;;;;21.90;83.00;;;;;;2622108;46;19935;31
2022/05/23 13:50:38;;;;;;;;;;;22.00;81.90;;;;;;2614298;46;20784;31
2022/05/23 13:53:20;;;;;;;;;;;22.10;83.60;;;;;;2621625;46;19935;31
2022/05/23 13:55:56;;;;;;;;;;;22.10;82.30;;;;;;2603441;54;19941;31
2022/05/23 13:58:34;;;;;;;;;;;22.10;83.20;;;;;;2603413;54;20771;31
2022/05/23 14:01:09;;;;;;;;;;;22.10;81.10;;;;;;2621916;46;19935;31
2022/05/23 14:03:45;;;;;;;;;;;22.10;80.50;;;;;;2602767;54;20873;31
2022/05/23 14:06:20;;;;;;;;;;;22.00;79.40;;;;;;2602388;54;19944;31
2022/05/23 14:08:59;;;;;;;;;;;22.10;80.60;;;;;;2602572;54;19942;31
2022/05/23 14:11:35;;;;;;;;;;;22.00;80.00;;;;;;2603225;54;19957;31
2022/05/23 14:14:14;;;;;;;;;;;22.00;79.90;;;;;;2603465;54;20814;31
2022/05/23 14:16:53;;;;;;;;;;;21.90;79.90;;;;;;2603735;54;20659;31
2022/05/23 14:19:28;;;;;;;;;;;21.90;79.70;;;;;;2603269;54;19969;31
2022/05/23 14:22:08;;;;;;;;;;;21.80;80.20;;;;;;2602472;54;19942;31
2022/05/23 14:24:46;;;;;;;;;;;21.80;80.60;;;;;;2603587;54;20782;31
2022/05/23 14:27:29;;;;;;;;;;;21.80;80.80;;;;;;2603280;54;19934;31
2022/05/23 14:30:14;;;;;;;;;;;21.70;79.00;;;;;;2603111;54;19935;31
2022/05/23 14:32:55;;;;;;;;;;;21.60;77.60;;;;;;2603346;54;19934;31
2022/05/23 14:35:32;;;;;;;;;;;21.60;78.60;;;;;;2603437;54;19935;31
2022/05/23 14:38:07;;;;;;;;;;;21.50;77.90;;;;;;2603320;54;20738;31
2022/05/23 14:40:44;;;;;;;;;;;21.50;77.40;;;;;;2603315;54;19934;31
2022/05/23 14:43:21;;;;;;;;;;;21.50;78.30;;;;;;2602412;54;19985;31
2022/05/23 14:45:56;;;;;;;;;;;21.50;78.20;;;;;;2603301;54;19957;31
2022/05/23 14:48:31;;;;;;;;;;;21.40;77.70;;;;;;2603107;54;20741;31
2022/05/23 14:51:13;;;;;;;;;;;21.40;77.30;;;;;;2603311;54;19934;31
2022/05/23 14:56:36;;;;;;;;;;;21.40;77.50;;;;;;2603401;54;20737;31
2022/05/23 15:02:10;;;;;;;;;;;21.40;75.00;;;;;;2621567;46;19934;31
2022/05/23 15:04:47;;;;;;;;;;;21.30;76.90;;;;;;2603082;54;19954;31
2022/05/23 15:07:22;;;;;;;;;;;21.30;77.90;;;;;;2622115;46;19935;31
2022/05/23 15:09:58;;;;;;;;;;;21.30;78.30;;;;;;2603264;54;19993;31
2022/05/23 15:12:32;;;;;;;;;;;21.40;78.90;;;;;;2621764;46;20666;31
2022/05/23 15:15:11;;;;;;;;;;;21.40;78.00;;;;;;2603148;54;20683;31
2022/05/23 15:17:49;;;;;;;;;;;21.40;77.50;;;;;;2603492;54;20013;31
2022/05/23 15:20:23;;;;;;;;;;;21.50;79.60;;;;;;2603226;54;19956;31
2022/05/23 15:22:57;;;;;;;;;;;21.50;79.60;;;;;;2602723;54;19957;31
2022/05/23 15:25:31;;;;;;;;;;;21.50;79.50;;;;;;2621852;46;20767;31
2022/05/23 15:28:07;;;;;;;;;;;21.50;80.40;;;;;;2619658;46;19943;31
2022/05/23 15:30:51;;;;;;;;;;;21.60;80.80;;;;;;2621546;46;20789;31
2022/05/23 15:33:30;;;;;;;;;;;21.60;80.50;;;;;;2602247;54;20711;31
2022/05/23 15:36:07;;;;;;;;;;;21.70;81.00;;;;;;2602971;54;20528;31
2022/05/23 15:38:41;;;;;;;;;;;21.70;79.60;;;;;;2621621;46;19935;31
2022/05/23 15:41:16;;;;;;;;;;;21.70;79.70;;;;;;2621681;46;19993;31
2022/05/23 15:43:52;;;;;;;;;;;21.70;78.40;;;;;;2621583;46;19941;31
2022/05/23 15:46:26;;;;;;;;;;;21.60;78.70;;;;;;2615947;46;19946;31
2022/05/23 15:49:05;;;;;;;;;;;21.60;78.40;;;;;;2616596;46;20737;31
2022/05/23 15:51:44;;;;;;;;;;;21.50;78.90;;;;;;2700641;39;21322;31
2022/05/23 15:54:19;;;;;;;;;;;21.50;78.70;;;;;;2602712;54;19967;31
2022/05/23 15:56:54;;;;;;;;;;;21.40;78.30;;;;;;2603130;54;19935;31
2022/05/23 15:59:41;;;;;;;;;;;21.40;79.30;;;;;;2602822;54;20005;31
2022/05/23 16:02:17;;;;;;;;;;;21.50;80.20;;;;;;2621488;46;20466;31
2022/05/23 16:04:55;;;;;;;;;;;21.50;79.30;;;;;;2603054;54;19938;31
2022/05/23 16:07:31;;;;;;;;;;;21.50;79.20;;;;;;2612793;47;20817;31
2022/05/23 16:10:10;;;;;;;;;;;21.40;77.50;;;;;;2621729;47;20749;31
2022/05/23 16:12:47;;;;;;;;;;;21.40;78.20;;;;;;2602993;54;19958;31
2022/05/23 16:15:22;;;;;;;;;;;21.40;78.80;;;;;;2617579;47;20021;31
2022/05/23 16:17:57;;;;;;;;;;;21.40;79.20;;;;;;2621243;47;19935;31
2022/05/23 16:20:31;;;;;;;;;;;21.40;77.90;;;;;;2603175;54;19935;31
2022/05/23 16:23:06;;;;;;;;;;;21.30;78.40;;;;;;2602786;54;20517;31
2022/05/23 16:25:44;;;;;;;;;;;21.30;78.60;;;;;;2602700;54;20741;31
2022/05/23 16:28:22;;;;;;;;;;;21.30;79.50;;;;;;2701209;39;21423;31
2022/05/23 16:30:57;;;;;;;;;;;21.20;78.60;;;;;;2602870;54;19935;31
2022/05/23 16:39:05;;;;;;;;;;;21.10;79.00;;;;;;2602789;54;19934;31
2022/05/23 16:41:44;;;;;;;;;;;21.10;79.20;;;;;;2601961;54;19946;31
2022/05/23 16:44:19;;;;;;;;;;;21.10;79.20;;;;;;2602798;54;19935;31
2022/05/23 16:46:54;;;;;;;;;;;21.10;79.80;;;;;;2701291;39;20440;31
2022/05/23 16:49:27;;;;;;;;;;;21.10;80.00;;;;;;2621361;47;19934;31
2022/05/23 16:52:02;;;;;;;;;;;21.10;80.20;;;;;;2602071;54;20025;31
2022/05/23 16:54:37;;;;;;;;;;;21.10;80.00;;;;;;2621095;47;19934;31
2022/05/23 16:57:15;;;;;;;;;;;21.10;80.10;;;;;;2602759;54;21240;31
2022/05/23 16:59:55;;;;;;;;;;;21.10;80.80;;;;;;2602116;54;19947;31